Time;durP1;ratioP1;P1;durP2;ratioP2;P2;SDS_P1;SDS_P2;PMS_P1;PMS_P2;Temp;Humidity;BMP_temperature;BMP_pressure;BME280_temperature;BME280_humidity;BME280_pressure;Samples;Min_cycle;Max_cycle;Signal;HPM_P1;HPM_P2
2024/03/08 00:00:44;;;;;;;5.22;2.63;;;;;;;;;;10410061;28;20373;-62
2024/03/08 00:05:44;;;;;;;2.88;2.33;;;;;;;;;;10409082;28;20042;-62
2024/03/08 00:10:45;;;;;;;6.82;2.40;;;;;;;;;;10409783;28;20029;-63
2024/03/08 00:15:46;;;;;;;6.13;2.28;;;;;;;;;;10408041;28;20031;-62
2024/03/08 00:20:47;;;;;;;6.82;2.60;;;;;;;;;;10409454;28;20025;-61
2024/03/08 00:25:47;;;;;;;6.30;2.22;;;;;;;;;;10408561;28;20048;-62
2024/03/08 00:30:48;;;;;;;7.00;2.65;;;;;;;;;;10408497;28;20079;-62
2024/03/08 00:35:49;;;;;;;4.32;2.40;;;;;;;;;;10408769;28;20033;-62
2024/03/08 00:40:49;;;;;;;3.85;2.40;;;;;;;;;;10408876;28;20461;-62
2024/03/08 00:45:50;;;;;;;4.63;2.58;;;;;;;;;;10408009;28;20572;-62
2024/03/08 00:50:51;;;;;;;5.07;2.40;;;;;;;;;;10408069;28;20034;-63
2024/03/08 00:55:51;;;;;;;3.75;2.70;;;;;;;;;;10408111;28;20026;-62
2024/03/08 01:00:52;;;;;;;4.45;2.30;;;;;;;;;;10417018;28;20029;-63
2024/03/08 01:05:52;;;;;;;3.30;2.10;;;;;;;;;;10416207;28;20274;-63
2024/03/08 01:10:54;;;;;;;3.03;2.30;;;;;;;;;;10416086;28;20030;-62
2024/03/08 01:15:54;;;;;;;4.57;2.50;;;;;;;;;;10415900;28;20053;-64
2024/03/08 01:20:55;;;;;;;3.47;2.53;;;;;;;;;;10416802;28;20372;-63
2024/03/08 01:25:58;;;;;;;5.45;2.35;;;;;;;;;;10415788;28;20357;-63
2024/03/08 01:30:59;;;;;;;3.17;2.20;;;;;;;;;;10415928;28;20025;-63
2024/03/08 01:35:59;;;;;;;2.95;2.58;;;;;;;;;;10415455;28;20362;-63
2024/03/08 01:41:00;;;;;;;3.00;2.30;;;;;;;;;;10415607;28;20091;-64
2024/03/08 01:46:01;;;;;;;3.90;2.38;;;;;;;;;;10414838;28;20052;-64
2024/03/08 01:51:02;;;;;;;2.47;2.28;;;;;;;;;;10415181;28;20037;-63
2024/03/08 01:56:05;;;;;;;3.92;2.50;;;;;;;;;;10413070;28;20048;-63
2024/03/08 02:01:07;;;;;;;2.72;2.15;;;;;;;;;;10414126;28;20029;-60
2024/03/08 02:06:10;;;;;;;5.55;2.60;;;;;;;;;;10412518;28;20107;-61
2024/03/08 02:11:11;;;;;;;9.23;2.47;;;;;;;;;;10412803;28;20560;-62
2024/03/08 02:16:11;;;;;;;2.70;2.00;;;;;;;;;;10412710;28;20113;-63
2024/03/08 02:21:13;;;;;;;2.85;2.10;;;;;;;;;;10413889;28;20426;-63
2024/03/08 02:26:14;;;;;;;4.85;2.08;;;;;;;;;;10413581;28;20029;-62
2024/03/08 02:31:14;;;;;;;2.10;1.90;;;;;;;;;;10413007;28;20037;-62
2024/03/08 02:36:16;;;;;;;3.63;2.28;;;;;;;;;;10412609;28;20046;-61
2024/03/08 02:41:16;;;;;;;6.18;2.40;;;;;;;;;;10413234;28;20029;-63
2024/03/08 02:46:17;;;;;;;5.22;2.30;;;;;;;;;;10412284;28;20034;-62
2024/03/08 02:51:17;;;;;;;9.93;2.35;;;;;;;;;;10412329;28;20576;-61
2024/03/08 02:56:18;;;;;;;2.00;1.80;;;;;;;;;;10411168;28;20026;-62
2024/03/08 03:01:20;;;;;;;6.07;1.98;;;;;;;;;;10412279;28;20030;-62
2024/03/08 03:06:21;;;;;;;3.00;2.00;;;;;;;;;;10411682;28;20045;-60
2024/03/08 03:11:22;;;;;;;3.95;2.00;;;;;;;;;;10411309;28;20385;-62
2024/03/08 03:16:22;;;;;;;2.67;2.00;;;;;;;;;;10411507;28;20497;-61
2024/03/08 03:21:23;;;;;;;3.05;2.20;;;;;;;;;;10410882;28;20032;-62
2024/03/08 03:26:23;;;;;;;3.35;2.25;;;;;;;;;;10411551;28;20029;-63
2024/03/08 03:31:25;;;;;;;2.10;1.90;;;;;;;;;;10411354;28;20025;-62
2024/03/08 03:36:27;;;;;;;2.42;1.90;;;;;;;;;;10410834;28;20029;-62
2024/03/08 03:41:28;;;;;;;2.20;1.85;;;;;;;;;;10410432;28;20033;-63
2024/03/08 03:46:28;;;;;;;3.67;2.00;;;;;;;;;;10409893;28;20033;-62
2024/03/08 03:51:30;;;;;;;2.55;1.90;;;;;;;;;;10409849;28;20033;-63
2024/03/08 03:56:30;;;;;;;1.90;1.80;;;;;;;;;;10409599;28;20484;-63
2024/03/08 04:01:31;;;;;;;2.55;2.10;;;;;;;;;;10409316;28;20030;-64
2024/03/08 04:06:31;;;;;;;2.03;1.85;;;;;;;;;;10409274;28;20045;-61
2024/03/08 04:11:32;;;;;;;2.33;2.08;;;;;;;;;;10409604;28;20029;-62
2024/03/08 04:16:32;;;;;;;1.70;1.60;;;;;;;;;;10409138;28;20123;-62
2024/03/08 04:21:33;;;;;;;2.17;1.80;;;;;;;;;;10409806;28;20469;-62
2024/03/08 04:26:34;;;;;;;2.10;1.95;;;;;;;;;;10408765;28;20443;-61
2024/03/08 04:31:34;;;;;;;2.30;1.88;;;;;;;;;;10408312;28;20029;-62
2024/03/08 04:36:35;;;;;;;3.35;1.95;;;;;;;;;;10408378;28;20508;-62
2024/03/08 04:41:37;;;;;;;2.08;1.90;;;;;;;;;;10408314;28;20032;-62
2024/03/08 04:46:37;;;;;;;1.77;1.67;;;;;;;;;;10408560;28;20041;-62
2024/03/08 04:51:42;;;;;;;1.80;1.70;;;;;;;;;;10407934;28;20354;-61
2024/03/08 04:56:42;;;;;;;2.17;1.75;;;;;;;;;;10407891;28;20033;-63
2024/03/08 05:01:43;;;;;;;1.63;1.52;;;;;;;;;;10407830;28;20405;-62
2024/03/08 05:06:44;;;;;;;3.28;1.90;;;;;;;;;;10407509;28;20449;-61
2024/03/08 05:11:46;;;;;;;1.70;1.60;;;;;;;;;;10407616;28;20026;-62
2024/03/08 05:16:50;;;;;;;1.80;1.60;;;;;;;;;;10407374;28;20040;-62
2024/03/08 05:21:51;;;;;;;1.90;1.77;;;;;;;;;;10407816;28;20087;-64
2024/03/08 05:26:51;;;;;;;1.85;1.60;;;;;;;;;;10407987;28;20025;-62
2024/03/08 05:31:52;;;;;;;1.55;1.45;;;;;;;;;;10407075;28;20033;-62
2024/03/08 05:36:54;;;;;;;1.70;1.60;;;;;;;;;;10407305;28;20033;-62
2024/03/08 05:41:55;;;;;;;1.98;1.70;;;;;;;;;;10406735;28;20122;-61
2024/03/08 05:46:56;;;;;;;1.75;1.65;;;;;;;;;;10415118;28;20381;-62
2024/03/08 05:51:57;;;;;;;2.90;1.83;;;;;;;;;;10414628;28;20030;-64
2024/03/08 05:56:58;;;;;;;1.42;1.33;;;;;;;;;;10414513;28;20103;-64
2024/03/08 06:01:58;;;;;;;1.70;1.60;;;;;;;;;;10414234;28;20029;-64
2024/03/08 06:06:59;;;;;;;2.92;1.83;;;;;;;;;;10413409;28;20037;-62
2024/03/08 06:12:01;;;;;;;2.00;1.80;;;;;;;;;;10412259;28;20025;-64
2024/03/08 06:17:02;;;;;;;2.17;1.70;;;;;;;;;;10412835;28;20112;-63
2024/03/08 06:22:05;;;;;;;1.92;1.75;;;;;;;;;;10412263;28;20426;-65
2024/03/08 06:27:06;;;;;;;1.65;1.55;;;;;;;;;;10413357;28;20032;-63
2024/03/08 06:32:06;;;;;;;1.70;1.60;;;;;;;;;;10412974;28;20033;-64
2024/03/08 06:37:07;;;;;;;9.35;2.00;;;;;;;;;;10412429;28;20033;-64
2024/03/08 06:42:09;;;;;;;2.13;1.95;;;;;;;;;;10411092;28;20033;-63
2024/03/08 06:47:09;;;;;;;7.80;2.65;;;;;;;;;;10411524;28;20053;-63
2024/03/08 06:52:10;;;;;;;2.03;1.83;;;;;;;;;;10412235;28;20033;-63
2024/03/08 06:57:11;;;;;;;10.88;2.13;;;;;;;;;;10411446;28;20064;-62
2024/03/08 07:02:11;;;;;;;13.55;2.20;;;;;;;;;;10409904;28;20033;-61
2024/03/08 07:07:12;;;;;;;18.58;2.30;;;;;;;;;;10410630;28;20308;-62
2024/03/08 07:12:13;;;;;;;13.38;2.95;;;;;;;;;;10411648;28;20442;-64
2024/03/08 07:17:13;;;;;;;5.25;2.47;;;;;;;;;;10411269;28;20026;-62
2024/03/08 07:22:14;;;;;;;11.15;2.65;;;;;;;;;;10411365;28;20037;-63
2024/03/08 07:27:15;;;;;;;10.68;2.72;;;;;;;;;;10411103;28;20030;-63
2024/03/08 07:32:21;;;;;;;12.13;2.65;;;;;;;;;;10410706;28;20098;-63
2024/03/08 07:37:23;;;;;;;6.75;3.13;;;;;;;;;;10410618;28;20507;-62
2024/03/08 07:42:24;;;;;;;9.70;2.90;;;;;;;;;;10411020;28;20124;-63
2024/03/08 07:47:26;;;;;;;8.40;2.70;;;;;;;;;;10410710;28;20461;-62
2024/03/08 07:52:26;;;;;;;6.88;2.67;;;;;;;;;;10410414;28;20040;-62
2024/03/08 07:57:27;;;;;;;9.82;3.13;;;;;;;;;;10410401;28;20392;-63
2024/03/08 08:02:27;;;;;;;9.07;3.22;;;;;;;;;;10409882;28;20099;-62
2024/03/08 08:07:28;;;;;;;11.07;4.55;;;;;;;;;;10408814;28;20029;-63
2024/03/08 08:12:29;;;;;;;14.77;5.85;;;;;;;;;;10409874;28;20033;-63
2024/03/08 08:17:29;;;;;;;13.88;6.28;;;;;;;;;;10410167;28;20582;-61
2024/03/08 08:22:30;;;;;;;15.65;6.72;;;;;;;;;;10409027;28;20029;-63
2024/03/08 08:27:30;;;;;;;19.60;8.45;;;;;;;;;;10409391;28;20045;-63
2024/03/08 08:32:33;;;;;;;21.92;9.05;;;;;;;;;;10408627;28;20055;-63
2024/03/08 08:37:37;;;;;;;25.13;9.38;;;;;;;;;;10408593;28;20021;-63
2024/03/08 08:42:37;;;;;;;24.05;10.35;;;;;;;;;;10408481;28;20480;-63
2024/03/08 08:47:38;;;;;;;25.27;10.45;;;;;;;;;;10408175;28;20017;-63
2024/03/08 08:52:39;;;;;;;26.55;11.32;;;;;;;;;;10408061;28;20060;-63
2024/03/08 08:57:44;;;;;;;23.60;11.07;;;;;;;;;;10409010;28;20030;-63
2024/03/08 09:02:44;;;;;;;23.90;11.30;;;;;;;;;;10407758;28;20409;-63
2024/03/08 09:07:45;;;;;;;26.23;10.90;;;;;;;;;;10408406;28;20037;-63
2024/03/08 09:12:46;;;;;;;28.65;11.88;;;;;;;;;;10407936;28;20544;-62
2024/03/08 09:17:48;;;;;;;28.92;12.73;;;;;;;;;;10409382;28;20034;-63
2024/03/08 09:22:48;;;;;;;30.00;12.73;;;;;;;;;;10416252;28;20112;-63
2024/03/08 09:27:49;;;;;;;31.23;11.48;;;;;;;;;;10415698;28;20040;-63
2024/03/08 09:32:51;;;;;;;31.15;13.05;;;;;;;;;;10416282;28;20025;-63
2024/03/08 09:37:51;;;;;;;28.88;13.85;;;;;;;;;;10415928;28;20029;-62
2024/03/08 09:42:52;;;;;;;30.13;13.30;;;;;;;;;;10414887;28;20036;-63
2024/03/08 09:47:54;;;;;;;30.85;12.73;;;;;;;;;;10415405;28;20041;-63
2024/03/08 09:52:57;;;;;;;31.02;13.35;;;;;;;;;;10414504;28;20030;-62
2024/03/08 10:03:20;;;;;;;31.67;13.05;;;;;;;;;;10413765;28;20041;-61
2024/03/08 10:08:20;;;;;;;23.65;12.77;;;;;;;;;;10414145;28;20035;-62
2024/03/08 10:13:21;;;;;;;25.73;12.48;;;;;;;;;;10413978;28;20040;-63
2024/03/08 10:18:22;;;;;;;26.88;13.45;;;;;;;;;;10414265;28;20022;-63
2024/03/08 10:23:23;;;;;;;30.25;14.18;;;;;;;;;;10414198;28;20103;-63
2024/03/08 10:28:24;;;;;;;31.10;14.15;;;;;;;;;;10413561;28;20033;-61
2024/03/08 10:33:25;;;;;;;27.98;13.48;;;;;;;;;;10411240;28;20442;-61
2024/03/08 10:38:31;;;;;;;31.00;14.32;;;;;;;;;;10413057;28;20100;-60
2024/03/08 10:43:40;;;;;;;30.50;13.48;;;;;;;;;;10412825;28;20440;-62
2024/03/08 10:48:47;;;;;;;23.92;13.65;;;;;;;;;;10411745;28;20029;-63
2024/03/08 10:53:48;;;;;;;24.88;13.57;;;;;;;;;;10411989;28;20032;-63
2024/03/08 10:58:49;;;;;;;29.88;13.60;;;;;;;;;;10412309;28;20543;-61
2024/03/08 11:03:51;;;;;;;31.15;14.40;;;;;;;;;;10411099;28;20095;-63
2024/03/08 11:08:53;;;;;;;29.95;14.77;;;;;;;;;;10412393;28;20041;-62
2024/03/08 11:13:56;;;;;;;26.67;14.43;;;;;;;;;;10412008;28;20143;-63
2024/03/08 11:19:05;;;;;;;26.60;14.40;;;;;;;;;;10411408;28;20176;-63
2024/03/08 11:24:16;;;;;;;24.38;14.15;;;;;;;;;;10411892;28;20280;-62
2024/03/08 11:29:32;;;;;;;29.48;14.93;;;;;;;;;;10411542;28;20030;-62
2024/03/08 11:34:35;;;;;;;27.33;14.80;;;;;;;;;;10411101;28;20033;-63
2024/03/08 11:39:37;;;;;;;25.63;14.13;;;;;;;;;;10410914;28;20030;-63
2024/03/08 11:44:37;;;;;;;26.55;14.55;;;;;;;;;;10411013;28;20036;-56
2024/03/08 11:49:42;;;;;;;26.80;14.35;;;;;;;;;;10410594;28;20469;-59
2024/03/08 11:54:57;;;;;;;26.70;14.25;;;;;;;;;;10410433;28;20026;-55
2024/03/08 12:00:06;;;;;;;28.70;14.75;;;;;;;;;;10408875;28;20152;-55
2024/03/08 12:05:09;;;;;;;27.42;13.45;;;;;;;;;;10409412;28;20049;-55
2024/03/08 12:10:24;;;;;;;25.92;14.07;;;;;;;;;;10409362;28;20112;-54
2024/03/08 12:15:25;;;;;;;31.23;14.75;;;;;;;;;;10410322;28;20036;-54
2024/03/08 12:20:32;;;;;;;28.88;14.43;;;;;;;;;;10409462;28;20108;-58
2024/03/08 12:25:36;;;;;;;27.60;15.57;;;;;;;;;;10409474;28;20104;-55
2024/03/08 12:30:54;;;;;;;26.42;14.48;;;;;;;;;;10409346;28;20025;-59
2024/03/08 12:35:55;;;;;;;24.25;14.23;;;;;;;;;;10407743;28;20037;-54
2024/03/08 12:40:58;;;;;;;22.30;13.43;;;;;;;;;;10408641;28;20037;-52
2024/03/08 12:45:59;;;;;;;24.95;14.10;;;;;;;;;;10408934;28;20103;-52
2024/03/08 12:51:01;;;;;;;26.55;14.77;;;;;;;;;;10408053;28;20065;-61
2024/03/08 12:56:03;;;;;;;22.60;12.88;;;;;;;;;;10406658;28;20176;-56
2024/03/08 13:01:08;;;;;;;24.27;14.35;;;;;;;;;;10408662;28;20040;-52
2024/03/08 13:06:08;;;;;;;28.20;13.63;;;;;;;;;;10407721;28;20417;-54
2024/03/08 13:11:13;;;;;;;24.25;13.23;;;;;;;;;;10407877;28;20084;-55
2024/03/08 13:16:18;;;;;;;27.17;13.13;;;;;;;;;;10408248;28;20124;-55
2024/03/08 13:21:23;;;;;;;24.13;13.50;;;;;;;;;;10408071;28;20037;-54
2024/03/08 13:26:25;;;;;;;21.02;12.30;;;;;;;;;;10407970;28;20061;-53
2024/03/08 13:31:26;;;;;;;23.73;13.98;;;;;;;;;;10407052;28;20474;-53
2024/03/08 13:36:35;;;;;;;22.90;12.98;;;;;;;;;;10407211;28;20029;-55
2024/03/08 13:41:35;;;;;;;23.25;12.35;;;;;;;;;;10406398;28;20029;-55
2024/03/08 13:46:37;;;;;;;20.88;12.10;;;;;;;;;;10407049;28;20127;-54
2024/03/08 13:51:41;;;;;;;19.48;12.20;;;;;;;;;;10405610;28;20022;-54
2024/03/08 13:56:43;;;;;;;21.17;11.23;;;;;;;;;;10406916;28;20050;-55
2024/03/08 14:01:44;;;;;;;23.00;12.45;;;;;;;;;;10406755;28;20022;-55
2024/03/08 14:06:45;;;;;;;22.15;12.43;;;;;;;;;;10411172;28;20404;-53
2024/03/08 14:11:46;;;;;;;16.67;10.63;;;;;;;;;;10414378;28;20053;-55
2024/03/08 14:16:48;;;;;;;17.55;11.02;;;;;;;;;;10413849;28;20495;-60
2024/03/08 14:21:48;;;;;;;19.77;11.02;;;;;;;;;;10413679;28;20022;-55
2024/03/08 14:26:49;;;;;;;19.02;10.77;;;;;;;;;;10413397;28;20034;-55
2024/03/08 14:31:50;;;;;;;19.75;10.68;;;;;;;;;;10413157;28;20082;-55
2024/03/08 14:36:50;;;;;;;17.75;10.93;;;;;;;;;;10412746;28;20029;-59
2024/03/08 14:41:53;;;;;;;18.45;11.48;;;;;;;;;;10412610;28;20477;-53
2024/03/08 14:46:57;;;;;;;18.77;11.05;;;;;;;;;;10413025;28;20033;-54
2024/03/08 14:52:00;;;;;;;16.52;10.60;;;;;;;;;;10409984;28;20729;-60
2024/03/08 14:57:02;;;;;;;19.88;9.80;;;;;;;;;;10412486;28;20078;-55
2024/03/08 15:02:06;;;;;;;15.88;9.77;;;;;;;;;;10410387;28;20389;-54
2024/03/08 15:07:09;;;;;;;18.60;9.82;;;;;;;;;;10409840;28;20045;-53
2024/03/08 15:12:10;;;;;;;16.77;9.70;;;;;;;;;;10410478;28;20025;-55
2024/03/08 15:17:20;;;;;;;17.55;9.55;;;;;;;;;;10410688;28;20022;-54
2024/03/08 15:22:21;;;;;;;19.63;9.95;;;;;;;;;;10407289;28;20033;-53
2024/03/08 15:27:22;;;;;;;16.20;9.10;;;;;;;;;;10410642;28;20486;-51
2024/03/08 15:32:23;;;;;;;19.15;8.88;;;;;;;;;;10411289;28;20033;-57
2024/03/08 15:37:25;;;;;;;17.30;8.60;;;;;;;;;;10407693;28;20092;-54
2024/03/08 15:42:26;;;;;;;18.67;9.60;;;;;;;;;;10409135;28;20535;-52
2024/03/08 15:47:26;;;;;;;22.33;9.68;;;;;;;;;;10409075;28;20030;-54
2024/03/08 15:52:27;;;;;;;16.13;9.00;;;;;;;;;;10409440;28;20021;-50
2024/03/08 15:57:27;;;;;;;15.13;9.32;;;;;;;;;;10410195;28;20026;-51
2024/03/08 16:02:28;;;;;;;15.60;8.50;;;;;;;;;;10408935;28;20029;-54
2024/03/08 16:07:29;;;;;;;16.40;8.68;;;;;;;;;;10409382;28;20025;-54
2024/03/08 16:12:30;;;;;;;13.18;8.45;;;;;;;;;;10406847;28;20022;-54
2024/03/08 16:17:31;;;;;;;14.90;8.50;;;;;;;;;;10406662;28;20021;-51
2024/03/08 16:22:32;;;;;;;16.20;7.93;;;;;;;;;;10406217;28;20462;-51
2024/03/08 16:27:32;;;;;;;14.40;8.10;;;;;;;;;;10407099;28;20028;-51
2024/03/08 16:32:33;;;;;;;14.45;7.97;;;;;;;;;;10408467;28;20250;-53
2024/03/08 16:37:33;;;;;;;10.82;7.53;;;;;;;;;;10408642;28;20288;-54
2024/03/08 16:42:35;;;;;;;14.85;7.57;;;;;;;;;;10407953;28;20021;-56
2024/03/08 16:47:36;;;;;;;11.27;7.75;;;;;;;;;;10407294;28;20036;-61
2024/03/08 16:52:37;;;;;;;25.55;7.95;;;;;;;;;;10407856;28;20029;-56
2024/03/08 16:57:38;;;;;;;12.98;7.95;;;;;;;;;;10408578;28;20037;-56
2024/03/08 17:02:39;;;;;;;11.32;7.35;;;;;;;;;;10418503;23;20342;-63
2024/03/08 17:07:40;;;;;;;16.98;7.35;;;;;;;;;;10413364;28;20195;-63
2024/03/08 17:12:44;;;;;;;11.98;7.35;;;;;;;;;;10411316;28;20022;-61
2024/03/08 17:17:48;;;;;;;9.77;6.65;;;;;;;;;;10407122;28;20167;-62
2024/03/08 17:22:52;;;;;;;20.27;6.70;;;;;;;;;;10407196;28;20033;-63
2024/03/08 17:27:55;;;;;;;10.02;6.30;;;;;;;;;;10408375;28;20056;-63
2024/03/08 17:33:08;;;;;;;11.93;6.85;;;;;;;;;;10408355;28;20022;-58
2024/03/08 17:38:10;;;;;;;15.50;6.60;;;;;;;;;;10409128;28;20041;-60
2024/03/08 17:43:11;;;;;;;12.65;7.35;;;;;;;;;;10415538;28;20492;-60
2024/03/08 17:48:12;;;;;;;11.13;6.53;;;;;;;;;;10415535;28;20044;-61
2024/03/08 17:53:13;;;;;;;14.48;7.10;;;;;;;;;;10415532;28;20021;-61
2024/03/08 17:58:14;;;;;;;11.93;6.43;;;;;;;;;;10414881;28;20021;-62
2024/03/08 18:03:17;;;;;;;10.65;6.15;;;;;;;;;;10414526;28;20046;-63
2024/03/08 18:08:18;;;;;;;10.65;6.13;;;;;;;;;;10414316;28;20358;-63
2024/03/08 18:13:19;;;;;;;13.60;6.20;;;;;;;;;;10414751;28;20026;-63
2024/03/08 18:18:20;;;;;;;10.30;6.10;;;;;;;;;;10414055;28;20397;-62
2024/03/08 18:23:21;;;;;;;18.95;6.80;;;;;;;;;;10413808;28;20026;-64
2024/03/08 18:28:21;;;;;;;11.23;5.80;;;;;;;;;;10414832;28;20040;-62
2024/03/08 18:33:22;;;;;;;8.88;5.95;;;;;;;;;;10413236;28;20546;-59
2024/03/08 18:38:22;;;;;;;9.23;5.60;;;;;;;;;;10414289;28;20034;-61
2024/03/08 18:43:25;;;;;;;11.13;6.10;;;;;;;;;;10413108;28;20543;-63
2024/03/08 18:48:26;;;;;;;9.93;5.63;;;;;;;;;;10413529;28;20032;-64
2024/03/08 18:53:28;;;;;;;8.55;5.35;;;;;;;;;;10412271;28;20492;-61
2024/03/08 18:58:31;;;;;;;9.52;5.68;;;;;;;;;;10412891;28;20030;-64
2024/03/08 19:03:34;;;;;;;11.20;6.35;;;;;;;;;;10412450;28;20042;-62
2024/03/08 19:08:36;;;;;;;7.15;5.43;;;;;;;;;;10409347;28;20049;-64
2024/03/08 19:13:37;;;;;;;7.25;5.32;;;;;;;;;;10411584;28;20029;-63
2024/03/08 19:18:37;;;;;;;11.40;6.25;;;;;;;;;;10411521;28;20401;-60
2024/03/08 19:23:38;;;;;;;6.35;5.10;;;;;;;;;;10410936;28;20045;-63
2024/03/08 19:28:41;;;;;;;8.77;5.68;;;;;;;;;;10411221;28;20037;-63
2024/03/08 19:33:42;;;;;;;11.10;5.75;;;;;;;;;;10410382;28;20052;-61
2024/03/08 19:38:43;;;;;;;11.60;5.45;;;;;;;;;;10411508;28;20037;-62
2024/03/08 19:43:45;;;;;;;9.52;5.53;;;;;;;;;;10411303;28;20028;-64
2024/03/08 19:48:45;;;;;;;8.10;5.20;;;;;;;;;;10410233;28;20022;-64
2024/03/08 19:53:49;;;;;;;9.85;5.38;;;;;;;;;;10409658;28;20025;-63
2024/03/08 19:58:49;;;;;;;7.68;5.35;;;;;;;;;;10409268;28;20095;-52
2024/03/08 20:03:50;;;;;;;7.97;5.38;;;;;;;;;;10409726;28;20037;-51
2024/03/08 20:08:51;;;;;;;8.23;4.72;;;;;;;;;;10409863;28;20037;-55
2024/03/08 20:13:52;;;;;;;10.02;5.38;;;;;;;;;;10409947;28;20041;-52
2024/03/08 20:18:53;;;;;;;7.55;5.25;;;;;;;;;;10409561;28;20481;-52
2024/03/08 20:23:54;;;;;;;7.30;4.43;;;;;;;;;;10409591;28;20461;-52
2024/03/08 20:28:56;;;;;;;7.68;4.78;;;;;;;;;;10409600;28;20591;-55
2024/03/08 20:33:57;;;;;;;7.85;4.82;;;;;;;;;;10408741;28;20484;-50
2024/03/08 20:38:57;;;;;;;7.97;4.63;;;;;;;;;;10409223;28;20087;-51
2024/03/08 20:43:58;;;;;;;6.80;4.63;;;;;;;;;;10408634;28;20025;-53
2024/03/08 20:49:00;;;;;;;7.47;4.22;;;;;;;;;;10408897;28;20033;-53
2024/03/08 20:54:05;;;;;;;6.32;4.43;;;;;;;;;;10408845;28;20037;-64
2024/03/08 20:59:05;;;;;;;7.60;4.90;;;;;;;;;;10408320;28;20056;-61
2024/03/08 21:04:06;;;;;;;7.32;4.50;;;;;;;;;;10407860;28;20048;-63
2024/03/08 21:09:11;;;;;;;6.85;4.50;;;;;;;;;;10408052;28;20080;-62
2024/03/08 21:14:12;;;;;;;6.78;4.20;;;;;;;;;;10410785;28;20037;-57
2024/03/08 21:19:13;;;;;;;8.40;4.13;;;;;;;;;;10416344;28;20389;-62
2024/03/08 21:24:14;;;;;;;5.90;4.35;;;;;;;;;;10416039;28;20126;-63
2024/03/08 21:29:15;;;;;;;7.30;4.47;;;;;;;;;;10415809;28;20032;-61
2024/03/08 21:34:16;;;;;;;7.82;5.07;;;;;;;;;;10415620;28;20114;-60
2024/03/08 21:39:16;;;;;;;5.55;4.28;;;;;;;;;;10415251;28;20031;-62
2024/03/08 21:44:17;;;;;;;6.32;4.50;;;;;;;;;;10415150;28;20477;-61
2024/03/08 21:49:17;;;;;;;8.02;4.35;;;;;;;;;;10415800;28;20021;-62
2024/03/08 21:54:19;;;;;;;6.88;4.53;;;;;;;;;;10414697;28;20030;-63
2024/03/08 21:59:20;;;;;;;7.00;4.72;;;;;;;;;;10415482;28;20033;-64
2024/03/08 22:04:20;;;;;;;6.25;4.20;;;;;;;;;;10414755;28;20052;-64
2024/03/08 22:09:21;;;;;;;9.68;4.80;;;;;;;;;;10414345;28;20389;-65
2024/03/08 22:14:23;;;;;;;4.43;3.58;;;;;;;;;;10414900;28;20029;-64
2024/03/08 22:19:25;;;;;;;7.05;4.75;;;;;;;;;;10411657;28;20029;-65
2024/03/08 22:24:26;;;;;;;14.93;4.57;;;;;;;;;;10412671;28;20171;-66
2024/03/08 22:29:26;;;;;;;7.65;3.92;;;;;;;;;;10412952;28;20072;-62
2024/03/08 22:34:27;;;;;;;6.88;4.10;;;;;;;;;;10413748;28;20025;-63
2024/03/08 22:39:28;;;;;;;9.25;4.35;;;;;;;;;;10411487;28;20143;-64
2024/03/08 22:44:32;;;;;;;6.28;3.95;;;;;;;;;;10409590;28;20025;-63
2024/03/08 22:49:33;;;;;;;5.88;3.80;;;;;;;;;;10410455;28;20037;-52
2024/03/08 22:54:34;;;;;;;7.32;4.13;;;;;;;;;;10412279;28;20121;-63
2024/03/08 22:59:35;;;;;;;7.20;4.32;;;;;;;;;;10412527;28;20500;-61
2024/03/08 23:04:36;;;;;;;6.03;4.13;;;;;;;;;;10411977;28;20037;-63
2024/03/08 23:09:37;;;;;;;7.05;3.88;;;;;;;;;;10412097;28;20029;-60
2024/03/08 23:14:38;;;;;;;5.70;3.80;;;;;;;;;;10412379;28;20492;-56
2024/03/08 23:19:41;;;;;;;7.53;4.20;;;;;;;;;;10411796;28;20029;-58
2024/03/08 23:24:43;;;;;;;8.18;3.88;;;;;;;;;;10411606;28;20380;-64
2024/03/08 23:29:44;;;;;;;4.93;3.42;;;;;;;;;;10411380;28;20040;-64
2024/03/08 23:34:44;;;;;;;9.15;4.00;;;;;;;;;;10410873;28;20060;-65
2024/03/08 23:39:45;;;;;;;7.32;3.50;;;;;;;;;;10410486;28;20057;-62
2024/03/08 23:44:46;;;;;;;6.57;3.80;;;;;;;;;;10409706;28;20029;-54
2024/03/08 23:49:47;;;;;;;5.32;3.72;;;;;;;;;;10410262;28;20432;-53
2024/03/08 23:54:48;;;;;;;6.82;3.75;;;;;;;;;;10409929;28;20469;-51
2024/03/08 23:59:50;;;;;;;5.97;3.67;;;;;;;;;;10410534;28;20017;-51
